sensor_id;sensor_type;location;lat;lon;timestamp;P1;durP1;ratioP1;P2;durP2;ratioP2
3985;SDS011;2007;48.750;9.278;2024-01-06T00:00:51;3.00;;;2.80;;
3985;SDS011;2007;48.750;9.278;2024-01-06T00:03:19;3.27;;;2.70;;
3985;SDS011;2007;48.750;9.278;2024-01-06T00:05:47;4.37;;;2.93;;
3985;SDS011;2007;48.750;9.278;2024-01-06T00:08:15;3.83;;;3.03;;
3985;SDS011;2007;48.750;9.278;2024-01-06T00:10:43;3.57;;;2.77;;
3985;SDS011;2007;48.750;9.278;2024-01-06T00:13:12;3.87;;;3.20;;
3985;SDS011;2007;48.750;9.278;2024-01-06T00:15:40;8.00;;;4.13;;
3985;SDS011;2007;48.750;9.278;2024-01-06T00:18:08;2.83;;;2.53;;
3985;SDS011;2007;48.750;9.278;2024-01-06T00:20:37;4.23;;;2.83;;
3985;SDS011;2007;48.750;9.278;2024-01-06T00:23:05;3.07;;;2.63;;
3985;SDS011;2007;48.750;9.278;2024-01-06T00:25:33;2.83;;;2.33;;
3985;SDS011;2007;48.750;9.278;2024-01-06T00:28:01;3.60;;;2.93;;
3985;SDS011;2007;48.750;9.278;2024-01-06T00:30:30;3.30;;;3.00;;
3985;SDS011;2007;48.750;9.278;2024-01-06T00:32:58;3.73;;;2.83;;
3985;SDS011;2007;48.750;9.278;2024-01-06T00:35:26;2.93;;;2.63;;
3985;SDS011;2007;48.750;9.278;2024-01-06T00:37:54;3.47;;;3.07;;
3985;SDS011;2007;48.750;9.278;2024-01-06T00:40:22;3.03;;;2.70;;
3985;SDS011;2007;48.750;9.278;2024-01-06T00:42:50;3.63;;;3.07;;
3985;SDS011;2007;48.750;9.278;2024-01-06T00:45:18;3.97;;;3.50;;
3985;SDS011;2007;48.750;9.278;2024-01-06T00:47:47;3.87;;;3.03;;
3985;SDS011;2007;48.750;9.278;2024-01-06T00:50:16;2.83;;;2.50;;
3985;SDS011;2007;48.750;9.278;2024-01-06T00:52:45;3.47;;;2.90;;
3985;SDS011;2007;48.750;9.278;2024-01-06T00:55:13;3.87;;;2.83;;
3985;SDS011;2007;48.750;9.278;2024-01-06T00:57:41;3.17;;;2.87;;
3985;SDS011;2007;48.750;9.278;2024-01-06T01:00:10;3.40;;;2.83;;
3985;SDS011;2007;48.750;9.278;2024-01-06T01:02:38;3.93;;;2.93;;
3985;SDS011;2007;48.750;9.278;2024-01-06T01:05:08;2.83;;;2.20;;
3985;SDS011;2007;48.750;9.278;2024-01-06T01:07:36;4.27;;;3.43;;
3985;SDS011;2007;48.750;9.278;2024-01-06T01:10:04;3.30;;;3.00;;
3985;SDS011;2007;48.750;9.278;2024-01-06T01:12:32;2.80;;;2.50;;
3985;SDS011;2007;48.750;9.278;2024-01-06T01:15:00;3.27;;;2.97;;
3985;SDS011;2007;48.750;9.278;2024-01-06T01:17:29;4.33;;;2.57;;
3985;SDS011;2007;48.750;9.278;2024-01-06T01:19:57;2.83;;;2.60;;
3985;SDS011;2007;48.750;9.278;2024-01-06T01:22:27;2.77;;;2.47;;
3985;SDS011;2007;48.750;9.278;2024-01-06T01:24:55;3.10;;;2.80;;
3985;SDS011;2007;48.750;9.278;2024-01-06T01:27:23;2.70;;;2.50;;
3985;SDS011;2007;48.750;9.278;2024-01-06T01:29:51;3.80;;;2.67;;
3985;SDS011;2007;48.750;9.278;2024-01-06T01:32:21;3.20;;;2.37;;
3985;SDS011;2007;48.750;9.278;2024-01-06T01:34:49;2.90;;;2.23;;
3985;SDS011;2007;48.750;9.278;2024-01-06T01:37:17;3.23;;;2.43;;
3985;SDS011;2007;48.750;9.278;2024-01-06T01:39:47;3.13;;;2.70;;
3985;SDS011;2007;48.750;9.278;2024-01-06T01:42:15;3.60;;;2.70;;
3985;SDS011;2007;48.750;9.278;2024-01-06T01:44:43;3.23;;;2.13;;
3985;SDS011;2007;48.750;9.278;2024-01-06T01:47:11;2.47;;;2.27;;
3985;SDS011;2007;48.750;9.278;2024-01-06T01:49:41;3.50;;;2.50;;
3985;SDS011;2007;48.750;9.278;2024-01-06T01:52:09;4.90;;;3.27;;
3985;SDS011;2007;48.750;9.278;2024-01-06T01:54:37;4.83;;;2.70;;
3985;SDS011;2007;48.750;9.278;2024-01-06T01:57:06;2.87;;;2.00;;
3985;SDS011;2007;48.750;9.278;2024-01-06T01:59:35;3.10;;;2.77;;
3985;SDS011;2007;48.750;9.278;2024-01-06T02:02:03;3.33;;;2.40;;
3985;SDS011;2007;48.750;9.278;2024-01-06T02:04:31;2.23;;;2.03;;
3985;SDS011;2007;48.750;9.278;2024-01-06T02:06:59;3.50;;;2.90;;
3985;SDS011;2007;48.750;9.278;2024-01-06T02:09:27;2.83;;;2.37;;
3985;SDS011;2007;48.750;9.278;2024-01-06T02:11:56;2.93;;;2.60;;
3985;SDS011;2007;48.750;9.278;2024-01-06T02:14:25;2.60;;;2.30;;
3985;SDS011;2007;48.750;9.278;2024-01-06T02:16:53;3.83;;;2.30;;
3985;SDS011;2007;48.750;9.278;2024-01-06T02:19:21;2.33;;;2.10;;
3985;SDS011;2007;48.750;9.278;2024-01-06T02:21:51;2.60;;;2.07;;
3985;SDS011;2007;48.750;9.278;2024-01-06T02:24:20;2.87;;;2.57;;
3985;SDS011;2007;48.750;9.278;2024-01-06T02:26:48;4.10;;;2.60;;
3985;SDS011;2007;48.750;9.278;2024-01-06T02:29:16;2.70;;;2.50;;
3985;SDS011;2007;48.750;9.278;2024-01-06T02:31:44;2.70;;;2.20;;
3985;SDS011;2007;48.750;9.278;2024-01-06T02:34:12;3.90;;;2.60;;
3985;SDS011;2007;48.750;9.278;2024-01-06T02:36:41;2.83;;;2.53;;
3985;SDS011;2007;48.750;9.278;2024-01-06T02:39:10;3.60;;;2.10;;
3985;SDS011;2007;48.750;9.278;2024-01-06T02:41:45;3.00;;;2.70;;
3985;SDS011;2007;48.750;9.278;2024-01-06T02:44:12;2.70;;;2.33;;
3985;SDS011;2007;48.750;9.278;2024-01-06T02:46:41;2.83;;;2.47;;
3985;SDS011;2007;48.750;9.278;2024-01-06T02:49:09;2.93;;;2.43;;
3985;SDS011;2007;48.750;9.278;2024-01-06T02:51:37;2.83;;;1.83;;
3985;SDS011;2007;48.750;9.278;2024-01-06T02:54:05;3.50;;;2.13;;
3985;SDS011;2007;48.750;9.278;2024-01-06T02:56:34;3.30;;;3.00;;
3985;SDS011;2007;48.750;9.278;2024-01-06T02:59:02;3.70;;;2.63;;
3985;SDS011;2007;48.750;9.278;2024-01-06T03:01:31;2.63;;;2.43;;
3985;SDS011;2007;48.750;9.278;2024-01-06T03:03:59;2.87;;;2.13;;
3985;SDS011;2007;48.750;9.278;2024-01-06T03:06:27;2.60;;;1.87;;
3985;SDS011;2007;48.750;9.278;2024-01-06T03:08:56;3.37;;;2.43;;
3985;SDS011;2007;48.750;9.278;2024-01-06T03:11:23;3.03;;;2.30;;
3985;SDS011;2007;48.750;9.278;2024-01-06T03:13:53;2.43;;;2.10;;
3985;SDS011;2007;48.750;9.278;2024-01-06T03:16:21;2.50;;;2.00;;
3985;SDS011;2007;48.750;9.278;2024-01-06T03:18:49;2.80;;;2.03;;
3985;SDS011;2007;48.750;9.278;2024-01-06T03:21:17;2.97;;;1.90;;
3985;SDS011;2007;48.750;9.278;2024-01-06T03:23:46;2.20;;;1.97;;
3985;SDS011;2007;48.750;9.278;2024-01-06T03:26:14;2.97;;;2.10;;
3985;SDS011;2007;48.750;9.278;2024-01-06T03:28:41;2.77;;;1.80;;
3985;SDS011;2007;48.750;9.278;2024-01-06T03:31:11;2.37;;;1.90;;
3985;SDS011;2007;48.750;9.278;2024-01-06T03:33:39;3.53;;;2.23;;
3985;SDS011;2007;48.750;9.278;2024-01-06T03:36:07;3.83;;;2.10;;
3985;SDS011;2007;48.750;9.278;2024-01-06T03:38:35;2.50;;;2.03;;
3985;SDS011;2007;48.750;9.278;2024-01-06T03:41:03;2.93;;;2.23;;
3985;SDS011;2007;48.750;9.278;2024-01-06T03:43:31;2.73;;;2.00;;
3985;SDS011;2007;48.750;9.278;2024-01-06T03:45:59;2.07;;;1.60;;
3985;SDS011;2007;48.750;9.278;2024-01-06T03:48:28;4.00;;;2.00;;
3985;SDS011;2007;48.750;9.278;2024-01-06T03:50:58;2.60;;;1.87;;
3985;SDS011;2007;48.750;9.278;2024-01-06T03:53:26;2.30;;;1.67;;
3985;SDS011;2007;48.750;9.278;2024-01-06T03:55:54;2.10;;;1.60;;
3985;SDS011;2007;48.750;9.278;2024-01-06T03:58:22;3.70;;;1.73;;
3985;SDS011;2007;48.750;9.278;2024-01-06T04:00:50;2.40;;;2.20;;
3985;SDS011;2007;48.750;9.278;2024-01-06T04:03:18;2.10;;;1.83;;
3985;SDS011;2007;48.750;9.278;2024-01-06T04:05:48;2.67;;;1.80;;
3985;SDS011;2007;48.750;9.278;2024-01-06T04:08:16;2.80;;;1.70;;
3985;SDS011;2007;48.750;9.278;2024-01-06T04:10:44;2.50;;;1.70;;
3985;SDS011;2007;48.750;9.278;2024-01-06T04:13:12;3.43;;;1.73;;
3985;SDS011;2007;48.750;9.278;2024-01-06T04:15:40;2.57;;;1.90;;
3985;SDS011;2007;48.750;9.278;2024-01-06T04:18:08;1.87;;;1.67;;
3985;SDS011;2007;48.750;9.278;2024-01-06T04:20:37;3.13;;;1.80;;
3985;SDS011;2007;48.750;9.278;2024-01-06T04:23:06;2.03;;;1.67;;
3985;SDS011;2007;48.750;9.278;2024-01-06T04:25:34;2.57;;;2.07;;
3985;SDS011;2007;48.750;9.278;2024-01-06T04:28:02;2.67;;;1.90;;
3985;SDS011;2007;48.750;9.278;2024-01-06T04:30:29;2.33;;;1.60;;
3985;SDS011;2007;48.750;9.278;2024-01-06T04:32:57;2.73;;;1.63;;
3985;SDS011;2007;48.750;9.278;2024-01-06T04:35:25;2.53;;;1.87;;
3985;SDS011;2007;48.750;9.278;2024-01-06T04:37:53;2.53;;;1.80;;
3985;SDS011;2007;48.750;9.278;2024-01-06T04:40:23;2.80;;;2.20;;
3985;SDS011;2007;48.750;9.278;2024-01-06T04:42:51;2.90;;;2.37;;
3985;SDS011;2007;48.750;9.278;2024-01-06T04:45:19;2.63;;;1.80;;
3985;SDS011;2007;48.750;9.278;2024-01-06T04:47:50;3.20;;;2.00;;
3985;SDS011;2007;48.750;9.278;2024-01-06T04:50:18;2.87;;;1.77;;
3985;SDS011;2007;48.750;9.278;2024-01-06T04:52:46;2.83;;;2.07;;
3985;SDS011;2007;48.750;9.278;2024-01-06T04:55:14;1.93;;;1.50;;
3985;SDS011;2007;48.750;9.278;2024-01-06T04:57:43;2.77;;;1.93;;
3985;SDS011;2007;48.750;9.278;2024-01-06T05:00:12;2.00;;;1.63;;
3985;SDS011;2007;48.750;9.278;2024-01-06T05:02:40;2.40;;;1.93;;
3985;SDS011;2007;48.750;9.278;2024-01-06T05:05:08;3.20;;;1.70;;
3985;SDS011;2007;48.750;9.278;2024-01-06T05:07:36;2.87;;;2.10;;
3985;SDS011;2007;48.750;9.278;2024-01-06T05:10:05;1.97;;;1.30;;
3985;SDS011;2007;48.750;9.278;2024-01-06T05:12:33;2.07;;;1.60;;
3985;SDS011;2007;48.750;9.278;2024-01-06T05:15:03;2.40;;;1.67;;
3985;SDS011;2007;48.750;9.278;2024-01-06T05:17:32;3.77;;;1.50;;
3985;SDS011;2007;48.750;9.278;2024-01-06T05:20:00;2.40;;;1.63;;
3985;SDS011;2007;48.750;9.278;2024-01-06T05:22:29;2.47;;;2.00;;
3985;SDS011;2007;48.750;9.278;2024-01-06T05:24:57;2.70;;;1.67;;
3985;SDS011;2007;48.750;9.278;2024-01-06T05:27:25;2.80;;;1.93;;
3985;SDS011;2007;48.750;9.278;2024-01-06T05:29:53;2.40;;;1.70;;
3985;SDS011;2007;48.750;9.278;2024-01-06T05:32:22;2.07;;;1.73;;
3985;SDS011;2007;48.750;9.278;2024-01-06T05:34:50;2.00;;;1.50;;
3985;SDS011;2007;48.750;9.278;2024-01-06T05:37:19;3.20;;;1.40;;
3985;SDS011;2007;48.750;9.278;2024-01-06T05:39:47;2.97;;;2.00;;
3985;SDS011;2007;48.750;9.278;2024-01-06T05:42:15;2.20;;;1.60;;
3985;SDS011;2007;48.750;9.278;2024-01-06T05:44:43;1.90;;;1.37;;
3985;SDS011;2007;48.750;9.278;2024-01-06T05:47:10;2.67;;;1.83;;
3985;SDS011;2007;48.750;9.278;2024-01-06T05:49:42;2.13;;;1.50;;
3985;SDS011;2007;48.750;9.278;2024-01-06T05:52:10;1.90;;;1.50;;
3985;SDS011;2007;48.750;9.278;2024-01-06T05:54:39;2.00;;;1.60;;
3985;SDS011;2007;48.750;9.278;2024-01-06T05:57:08;2.63;;;1.73;;
3985;SDS011;2007;48.750;9.278;2024-01-06T05:59:37;2.30;;;1.57;;
3985;SDS011;2007;48.750;9.278;2024-01-06T06:02:05;4.03;;;1.47;;
3985;SDS011;2007;48.750;9.278;2024-01-06T06:04:32;2.10;;;1.70;;
3985;SDS011;2007;48.750;9.278;2024-01-06T06:07:02;2.13;;;1.37;;
3985;SDS011;2007;48.750;9.278;2024-01-06T06:09:30;2.23;;;1.80;;
3985;SDS011;2007;48.750;9.278;2024-01-06T06:12:01;3.20;;;2.10;;
3985;SDS011;2007;48.750;9.278;2024-01-06T06:14:29;2.03;;;1.77;;
3985;SDS011;2007;48.750;9.278;2024-01-06T06:16:57;2.67;;;1.80;;
3985;SDS011;2007;48.750;9.278;2024-01-06T06:19:24;1.87;;;1.33;;
3985;SDS011;2007;48.750;9.278;2024-01-06T06:21:52;2.17;;;1.60;;
3985;SDS011;2007;48.750;9.278;2024-01-06T06:24:22;2.47;;;1.30;;
3985;SDS011;2007;48.750;9.278;2024-01-06T06:26:50;3.47;;;1.67;;
3985;SDS011;2007;48.750;9.278;2024-01-06T06:29:18;1.93;;;1.60;;
3985;SDS011;2007;48.750;9.278;2024-01-06T06:31:47;3.03;;;1.80;;
3985;SDS011;2007;48.750;9.278;2024-01-06T06:34:15;2.73;;;1.60;;
3985;SDS011;2007;48.750;9.278;2024-01-06T06:36:44;1.90;;;1.33;;
3985;SDS011;2007;48.750;9.278;2024-01-06T06:39:12;2.40;;;1.60;;
3985;SDS011;2007;48.750;9.278;2024-01-06T06:41:42;2.50;;;1.80;;
3985;SDS011;2007;48.750;9.278;2024-01-06T06:44:10;1.70;;;1.10;;
3985;SDS011;2007;48.750;9.278;2024-01-06T06:46:38;2.90;;;1.30;;
3985;SDS011;2007;48.750;9.278;2024-01-06T06:49:06;2.20;;;1.63;;
3985;SDS011;2007;48.750;9.278;2024-01-06T06:51:34;2.63;;;1.90;;
3985;SDS011;2007;48.750;9.278;2024-01-06T06:54:02;3.40;;;1.63;;
3985;SDS011;2007;48.750;9.278;2024-01-06T06:56:30;3.00;;;1.70;;
3985;SDS011;2007;48.750;9.278;2024-01-06T06:59:00;3.00;;;1.37;;
3985;SDS011;2007;48.750;9.278;2024-01-06T07:01:28;2.97;;;1.43;;
3985;SDS011;2007;48.750;9.278;2024-01-06T07:03:59;2.00;;;1.23;;
3985;SDS011;2007;48.750;9.278;2024-01-06T07:06:28;2.10;;;1.50;;
3985;SDS011;2007;48.750;9.278;2024-01-06T07:08:56;1.70;;;1.30;;
3985;SDS011;2007;48.750;9.278;2024-01-06T07:11:25;2.03;;;1.43;;
3985;SDS011;2007;48.750;9.278;2024-01-06T07:13:53;1.80;;;1.00;;
3985;SDS011;2007;48.750;9.278;2024-01-06T07:16:22;2.30;;;1.57;;
3985;SDS011;2007;48.750;9.278;2024-01-06T07:18:50;2.40;;;1.13;;
3985;SDS011;2007;48.750;9.278;2024-01-06T07:21:18;1.90;;;1.50;;
3985;SDS011;2007;48.750;9.278;2024-01-06T07:23:46;1.63;;;1.03;;
3985;SDS011;2007;48.750;9.278;2024-01-06T07:26:14;1.73;;;1.40;;
3985;SDS011;2007;48.750;9.278;2024-01-06T07:28:42;1.60;;;1.00;;
3985;SDS011;2007;48.750;9.278;2024-01-06T07:31:10;1.80;;;1.20;;
3985;SDS011;2007;48.750;9.278;2024-01-06T07:33:40;1.80;;;1.00;;
3985;SDS011;2007;48.750;9.278;2024-01-06T07:36:08;1.93;;;1.43;;
3985;SDS011;2007;48.750;9.278;2024-01-06T07:38:36;1.90;;;1.20;;
3985;SDS011;2007;48.750;9.278;2024-01-06T07:41:04;2.10;;;1.20;;
3985;SDS011;2007;48.750;9.278;2024-01-06T07:43:33;2.57;;;1.60;;
3985;SDS011;2007;48.750;9.278;2024-01-06T07:46:01;1.80;;;1.27;;
3985;SDS011;2007;48.750;9.278;2024-01-06T07:48:30;1.97;;;1.20;;
3985;SDS011;2007;48.750;9.278;2024-01-06T07:50:59;2.50;;;1.70;;
3985;SDS011;2007;48.750;9.278;2024-01-06T07:53:27;2.60;;;1.20;;
3985;SDS011;2007;48.750;9.278;2024-01-06T07:55:55;1.73;;;1.20;;
3985;SDS011;2007;48.750;9.278;2024-01-06T07:58:24;2.23;;;1.20;;
3985;SDS011;2007;48.750;9.278;2024-01-06T08:00:52;1.83;;;1.30;;
3985;SDS011;2007;48.750;9.278;2024-01-06T08:03:20;2.00;;;1.10;;
3985;SDS011;2007;48.750;9.278;2024-01-06T08:05:48;1.90;;;1.30;;
3985;SDS011;2007;48.750;9.278;2024-01-06T08:08:17;1.77;;;1.20;;
3985;SDS011;2007;48.750;9.278;2024-01-06T08:10:46;1.90;;;1.37;;
3985;SDS011;2007;48.750;9.278;2024-01-06T08:13:15;2.10;;;1.30;;
3985;SDS011;2007;48.750;9.278;2024-01-06T08:15:42;4.13;;;1.40;;
3985;SDS011;2007;48.750;9.278;2024-01-06T08:18:11;2.43;;;1.57;;
3985;SDS011;2007;48.750;9.278;2024-01-06T08:20:39;1.97;;;1.23;;
3985;SDS011;2007;48.750;9.278;2024-01-06T08:23:07;2.33;;;1.43;;
3985;SDS011;2007;48.750;9.278;2024-01-06T08:25:36;2.07;;;1.10;;
3985;SDS011;2007;48.750;9.278;2024-01-06T08:28:04;1.90;;;1.53;;
3985;SDS011;2007;48.750;9.278;2024-01-06T08:30:32;3.47;;;1.80;;
3985;SDS011;2007;48.750;9.278;2024-01-06T08:33:00;2.00;;;1.43;;
3985;SDS011;2007;48.750;9.278;2024-01-06T08:35:29;2.23;;;1.30;;
3985;SDS011;2007;48.750;9.278;2024-01-06T08:37:57;1.90;;;1.50;;
3985;SDS011;2007;48.750;9.278;2024-01-06T08:40:25;2.50;;;1.43;;
3985;SDS011;2007;48.750;9.278;2024-01-06T08:42:55;2.57;;;2.17;;
3985;SDS011;2007;48.750;9.278;2024-01-06T08:45:23;3.70;;;1.50;;
3985;SDS011;2007;48.750;9.278;2024-01-06T08:47:51;2.00;;;1.53;;
3985;SDS011;2007;48.750;9.278;2024-01-06T08:50:19;2.23;;;1.50;;
3985;SDS011;2007;48.750;9.278;2024-01-06T08:52:47;2.63;;;1.70;;
3985;SDS011;2007;48.750;9.278;2024-01-06T08:55:15;1.80;;;1.20;;
3985;SDS011;2007;48.750;9.278;2024-01-06T08:57:43;2.20;;;1.60;;
3985;SDS011;2007;48.750;9.278;2024-01-06T09:00:13;2.17;;;1.73;;
3985;SDS011;2007;48.750;9.278;2024-01-06T09:02:42;1.90;;;1.30;;
3985;SDS011;2007;48.750;9.278;2024-01-06T09:05:10;2.07;;;1.43;;
3985;SDS011;2007;48.750;9.278;2024-01-06T09:07:38;1.90;;;1.50;;
3985;SDS011;2007;48.750;9.278;2024-01-06T09:10:07;2.27;;;1.50;;
3985;SDS011;2007;48.750;9.278;2024-01-06T09:12:36;2.67;;;1.50;;
3985;SDS011;2007;48.750;9.278;2024-01-06T09:15:04;2.30;;;1.20;;
3985;SDS011;2007;48.750;9.278;2024-01-06T09:17:34;1.90;;;1.33;;
3985;SDS011;2007;48.750;9.278;2024-01-06T09:20:02;2.07;;;1.43;;
3985;SDS011;2007;48.750;9.278;2024-01-06T09:22:31;2.03;;;1.53;;
3985;SDS011;2007;48.750;9.278;2024-01-06T09:24:59;2.23;;;1.67;;
3985;SDS011;2007;48.750;9.278;2024-01-06T09:27:27;2.63;;;1.43;;
3985;SDS011;2007;48.750;9.278;2024-01-06T09:29:55;2.57;;;1.13;;
3985;SDS011;2007;48.750;9.278;2024-01-06T09:32:23;2.47;;;1.67;;
3985;SDS011;2007;48.750;9.278;2024-01-06T09:34:53;1.93;;;1.27;;
3985;SDS011;2007;48.750;9.278;2024-01-06T09:37:21;1.97;;;1.53;;
3985;SDS011;2007;48.750;9.278;2024-01-06T09:39:49;1.80;;;1.30;;
3985;SDS011;2007;48.750;9.278;2024-01-06T09:42:17;3.00;;;1.70;;
3985;SDS011;2007;48.750;9.278;2024-01-06T09:44:45;1.90;;;1.37;;
3985;SDS011;2007;48.750;9.278;2024-01-06T09:47:13;1.90;;;1.40;;
3985;SDS011;2007;48.750;9.278;2024-01-06T09:49:46;2.00;;;1.67;;
3985;SDS011;2007;48.750;9.278;2024-01-06T09:52:21;1.60;;;1.10;;
3985;SDS011;2007;48.750;9.278;2024-01-06T09:54:51;2.10;;;1.30;;
3985;SDS011;2007;48.750;9.278;2024-01-06T09:57:21;1.80;;;1.10;;
3985;SDS011;2007;48.750;9.278;2024-01-06T09:59:50;2.03;;;1.20;;
3985;SDS011;2007;48.750;9.278;2024-01-06T10:02:19;2.07;;;1.13;;
3985;SDS011;2007;48.750;9.278;2024-01-06T10:04:49;1.70;;;1.07;;
3985;SDS011;2007;48.750;9.278;2024-01-06T10:07:19;2.10;;;1.20;;
3985;SDS011;2007;48.750;9.278;2024-01-06T10:09:46;1.70;;;1.47;;
3985;SDS011;2007;48.750;9.278;2024-01-06T10:12:15;1.57;;;1.07;;
3985;SDS011;2007;48.750;9.278;2024-01-06T10:14:43;2.20;;;1.17;;
3985;SDS011;2007;48.750;9.278;2024-01-06T10:17:11;2.03;;;1.40;;
3985;SDS011;2007;48.750;9.278;2024-01-06T10:19:40;2.17;;;1.30;;
3985;SDS011;2007;48.750;9.278;2024-01-06T10:22:11;2.00;;;1.13;;
3985;SDS011;2007;48.750;9.278;2024-01-06T10:24:41;3.07;;;1.47;;
3985;SDS011;2007;48.750;9.278;2024-01-06T10:27:09;1.87;;;1.10;;
3985;SDS011;2007;48.750;9.278;2024-01-06T10:29:37;2.07;;;1.27;;
3985;SDS011;2007;48.750;9.278;2024-01-06T10:32:05;2.17;;;1.50;;
3985;SDS011;2007;48.750;9.278;2024-01-06T10:34:33;2.07;;;1.20;;
3985;SDS011;2007;48.750;9.278;2024-01-06T10:37:03;1.60;;;0.90;;
3985;SDS011;2007;48.750;9.278;2024-01-06T10:39:32;2.83;;;1.40;;
3985;SDS011;2007;48.750;9.278;2024-01-06T10:42:05;1.90;;;1.10;;
3985;SDS011;2007;48.750;9.278;2024-01-06T10:44:34;1.90;;;1.40;;
3985;SDS011;2007;48.750;9.278;2024-01-06T10:47:03;2.20;;;1.10;;
3985;SDS011;2007;48.750;9.278;2024-01-06T10:49:33;1.90;;;1.00;;
3985;SDS011;2007;48.750;9.278;2024-01-06T10:52:04;1.60;;;1.03;;
3985;SDS011;2007;48.750;9.278;2024-01-06T10:54:33;1.60;;;0.90;;
3985;SDS011;2007;48.750;9.278;2024-01-06T10:57:05;2.20;;;1.30;;
3985;SDS011;2007;48.750;9.278;2024-01-06T10:59:34;1.50;;;1.00;;
3985;SDS011;2007;48.750;9.278;2024-01-06T11:02:05;2.00;;;0.90;;
3985;SDS011;2007;48.750;9.278;2024-01-06T11:04:34;1.50;;;0.90;;
3985;SDS011;2007;48.750;9.278;2024-01-06T11:07:03;1.63;;;1.00;;
3985;SDS011;2007;48.750;9.278;2024-01-06T11:09:32;1.90;;;1.20;;
3985;SDS011;2007;48.750;9.278;2024-01-06T11:12:06;1.50;;;0.90;;
3985;SDS011;2007;48.750;9.278;2024-01-06T11:14:36;1.70;;;1.20;;
3985;SDS011;2007;48.750;9.278;2024-01-06T11:17:04;1.80;;;1.27;;
3985;SDS011;2007;48.750;9.278;2024-01-06T11:19:45;2.00;;;1.20;;
3985;SDS011;2007;48.750;9.278;2024-01-06T11:22:21;1.83;;;1.00;;
3985;SDS011;2007;48.750;9.278;2024-01-06T11:24:51;2.90;;;1.27;;
3985;SDS011;2007;48.750;9.278;2024-01-06T11:27:22;2.20;;;1.10;;
3985;SDS011;2007;48.750;9.278;2024-01-06T11:29:52;1.80;;;1.47;;
3985;SDS011;2007;48.750;9.278;2024-01-06T11:32:27;1.70;;;1.00;;
3985;SDS011;2007;48.750;9.278;2024-01-06T11:35:04;2.30;;;1.17;;
3985;SDS011;2007;48.750;9.278;2024-01-06T11:37:35;1.80;;;1.07;;
3985;SDS011;2007;48.750;9.278;2024-01-06T11:40:08;1.70;;;1.10;;
3985;SDS011;2007;48.750;9.278;2024-01-06T11:42:42;1.70;;;1.10;;
3985;SDS011;2007;48.750;9.278;2024-01-06T11:45:12;2.47;;;1.20;;
3985;SDS011;2007;48.750;9.278;2024-01-06T11:47:42;1.60;;;1.00;;
3985;SDS011;2007;48.750;9.278;2024-01-06T11:50:15;1.87;;;1.20;;
3985;SDS011;2007;48.750;9.278;2024-01-06T11:52:44;1.50;;;1.00;;
3985;SDS011;2007;48.750;9.278;2024-01-06T11:55:12;1.67;;;0.97;;
3985;SDS011;2007;48.750;9.278;2024-01-06T11:57:42;2.10;;;1.30;;
3985;SDS011;2007;48.750;9.278;2024-01-06T12:00:10;1.97;;;1.37;;
3985;SDS011;2007;48.750;9.278;2024-01-06T12:02:40;6.33;;;1.07;;
3985;SDS011;2007;48.750;9.278;2024-01-06T12:05:12;1.73;;;1.27;;
3985;SDS011;2007;48.750;9.278;2024-01-06T12:07:41;2.20;;;1.43;;
3985;SDS011;2007;48.750;9.278;2024-01-06T12:10:09;1.60;;;1.00;;
3985;SDS011;2007;48.750;9.278;2024-01-06T12:12:37;1.70;;;0.90;;
3985;SDS011;2007;48.750;9.278;2024-01-06T12:15:07;1.53;;;1.00;;
3985;SDS011;2007;48.750;9.278;2024-01-06T12:17:36;1.70;;;0.80;;
3985;SDS011;2007;48.750;9.278;2024-01-06T12:20:08;1.57;;;1.13;;
3985;SDS011;2007;48.750;9.278;2024-01-06T12:22:38;1.53;;;0.93;;
3985;SDS011;2007;48.750;9.278;2024-01-06T12:25:06;1.50;;;0.90;;
3985;SDS011;2007;48.750;9.278;2024-01-06T12:27:36;1.60;;;1.00;;
3985;SDS011;2007;48.750;9.278;2024-01-06T12:30:13;1.50;;;0.80;;
3985;SDS011;2007;48.750;9.278;2024-01-06T12:32:46;1.70;;;1.20;;
3985;SDS011;2007;48.750;9.278;2024-01-06T12:35:16;2.03;;;1.10;;
3985;SDS011;2007;48.750;9.278;2024-01-06T12:37:44;1.97;;;1.30;;
3985;SDS011;2007;48.750;9.278;2024-01-06T12:40:12;1.70;;;1.10;;
3985;SDS011;2007;48.750;9.278;2024-01-06T12:42:44;1.90;;;1.20;;
3985;SDS011;2007;48.750;9.278;2024-01-06T12:45:13;1.63;;;1.10;;
3985;SDS011;2007;48.750;9.278;2024-01-06T12:47:43;1.70;;;1.07;;
3985;SDS011;2007;48.750;9.278;2024-01-06T12:50:11;1.43;;;0.83;;
3985;SDS011;2007;48.750;9.278;2024-01-06T12:52:41;1.63;;;0.90;;
3985;SDS011;2007;48.750;9.278;2024-01-06T12:55:08;1.87;;;1.10;;
3985;SDS011;2007;48.750;9.278;2024-01-06T12:57:37;2.00;;;1.30;;
3985;SDS011;2007;48.750;9.278;2024-01-06T13:00:05;1.90;;;1.10;;
3985;SDS011;2007;48.750;9.278;2024-01-06T13:02:38;1.87;;;0.83;;
3985;SDS011;2007;48.750;9.278;2024-01-06T13:05:06;2.10;;;1.20;;
3985;SDS011;2007;48.750;9.278;2024-01-06T13:07:36;1.60;;;1.10;;
3985;SDS011;2007;48.750;9.278;2024-01-06T13:10:04;2.40;;;1.37;;
3985;SDS011;2007;48.750;9.278;2024-01-06T13:12:33;1.40;;;0.90;;
3985;SDS011;2007;48.750;9.278;2024-01-06T13:15:01;3.80;;;1.30;;
3985;SDS011;2007;48.750;9.278;2024-01-06T13:17:29;1.60;;;1.00;;
3985;SDS011;2007;48.750;9.278;2024-01-06T13:19:58;2.00;;;1.10;;
3985;SDS011;2007;48.750;9.278;2024-01-06T13:22:26;1.60;;;1.00;;
3985;SDS011;2007;48.750;9.278;2024-01-06T13:24:54;2.67;;;1.20;;
3985;SDS011;2007;48.750;9.278;2024-01-06T13:27:22;2.20;;;0.90;;
3985;SDS011;2007;48.750;9.278;2024-01-06T13:29:50;1.83;;;1.10;;
3985;SDS011;2007;48.750;9.278;2024-01-06T13:32:19;1.70;;;0.97;;
3985;SDS011;2007;48.750;9.278;2024-01-06T13:34:48;1.80;;;1.00;;
3985;SDS011;2007;48.750;9.278;2024-01-06T13:37:21;1.50;;;1.07;;
3985;SDS011;2007;48.750;9.278;2024-01-06T13:39:49;1.63;;;1.03;;
3985;SDS011;2007;48.750;9.278;2024-01-06T13:42:17;1.43;;;1.00;;
3985;SDS011;2007;48.750;9.278;2024-01-06T13:44:47;1.57;;;0.93;;
3985;SDS011;2007;48.750;9.278;2024-01-06T13:47:16;1.60;;;1.00;;
3985;SDS011;2007;48.750;9.278;2024-01-06T13:49:44;2.03;;;0.90;;
3985;SDS011;2007;48.750;9.278;2024-01-06T13:52:12;1.70;;;1.10;;
3985;SDS011;2007;48.750;9.278;2024-01-06T13:54:41;1.70;;;0.90;;
3985;SDS011;2007;48.750;9.278;2024-01-06T13:57:09;1.60;;;0.97;;
3985;SDS011;2007;48.750;9.278;2024-01-06T13:59:37;1.70;;;1.00;;
3985;SDS011;2007;48.750;9.278;2024-01-06T14:02:08;1.80;;;1.30;;
3985;SDS011;2007;48.750;9.278;2024-01-06T14:04:37;1.60;;;0.90;;
3985;SDS011;2007;48.750;9.278;2024-01-06T14:07:05;1.70;;;1.10;;
3985;SDS011;2007;48.750;9.278;2024-01-06T14:09:33;1.60;;;0.93;;
3985;SDS011;2007;48.750;9.278;2024-01-06T14:12:03;1.50;;;0.90;;
3985;SDS011;2007;48.750;9.278;2024-01-06T14:14:32;1.80;;;1.10;;
3985;SDS011;2007;48.750;9.278;2024-01-06T14:17:00;2.40;;;0.80;;
3985;SDS011;2007;48.750;9.278;2024-01-06T14:19:28;1.50;;;0.90;;
3985;SDS011;2007;48.750;9.278;2024-01-06T14:21:57;1.67;;;1.13;;
3985;SDS011;2007;48.750;9.278;2024-01-06T14:24:25;1.90;;;1.00;;
3985;SDS011;2007;48.750;9.278;2024-01-06T14:26:53;1.80;;;0.93;;
3985;SDS011;2007;48.750;9.278;2024-01-06T14:29:23;2.73;;;1.20;;
3985;SDS011;2007;48.750;9.278;2024-01-06T14:31:51;1.50;;;1.00;;
3985;SDS011;2007;48.750;9.278;2024-01-06T14:34:19;1.60;;;1.27;;
3985;SDS011;2007;48.750;9.278;2024-01-06T14:36:47;1.70;;;0.90;;
3985;SDS011;2007;48.750;9.278;2024-01-06T14:39:16;1.40;;;0.80;;
3985;SDS011;2007;48.750;9.278;2024-01-06T14:41:45;1.90;;;1.20;;
3985;SDS011;2007;48.750;9.278;2024-01-06T14:44:13;2.10;;;1.13;;
3985;SDS011;2007;48.750;9.278;2024-01-06T14:46:43;1.50;;;0.83;;
3985;SDS011;2007;48.750;9.278;2024-01-06T14:49:10;1.87;;;1.00;;
3985;SDS011;2007;48.750;9.278;2024-01-06T14:51:39;1.83;;;1.20;;
3985;SDS011;2007;48.750;9.278;2024-01-06T14:54:06;1.77;;;1.20;;
3985;SDS011;2007;48.750;9.278;2024-01-06T14:56:38;1.60;;;1.00;;
3985;SDS011;2007;48.750;9.278;2024-01-06T14:59:07;1.83;;;1.10;;
3985;SDS011;2007;48.750;9.278;2024-01-06T15:01:35;2.43;;;1.60;;
3985;SDS011;2007;48.750;9.278;2024-01-06T15:04:05;1.80;;;1.23;;
3985;SDS011;2007;48.750;9.278;2024-01-06T15:06:33;1.40;;;0.90;;
3985;SDS011;2007;48.750;9.278;2024-01-06T15:09:01;1.83;;;1.20;;
3985;SDS011;2007;48.750;9.278;2024-01-06T15:11:29;2.10;;;1.40;;
3985;SDS011;2007;48.750;9.278;2024-01-06T15:13:57;1.83;;;0.97;;
3985;SDS011;2007;48.750;9.278;2024-01-06T15:16:29;1.70;;;1.10;;
3985;SDS011;2007;48.750;9.278;2024-01-06T15:18:57;1.90;;;1.20;;
3985;SDS011;2007;48.750;9.278;2024-01-06T15:21:27;2.20;;;1.10;;
3985;SDS011;2007;48.750;9.278;2024-01-06T15:24:00;2.03;;;1.20;;